Satellite Precipitation Estimates (TXUS20 KWBC)
Issued by NWS

Home | Current Version | Previous Version | Text Only | Print | Product List | Glossary On
Versions: 1 2 3
000
SPTD31 TTPP 192030
SPECI
TTCP 192023Z 09008KT 8000 -RA SCT014 SCT038 24/22 Q1012=



USA.gov is the U.S. government's official web portal to all federal, state and local government web resources and services.